createdAt,value
2023-05-15T00:00:18.382Z,24.42
2023-05-15T00:01:18.450Z,24.41
2023-05-15T00:02:18.509Z,24.41
2023-05-15T00:03:18.655Z,24.41
2023-05-15T00:04:18.708Z,24.41
2023-05-15T00:05:18.687Z,24.41
2023-05-15T00:06:18.732Z,24.41
2023-05-15T00:07:18.792Z,24.41
2023-05-15T00:08:18.832Z,24.41
2023-05-15T00:09:18.912Z,24.41
2023-05-15T00:10:18.974Z,24.40
2023-05-15T00:11:19.017Z,24.40
2023-05-15T00:12:19.117Z,24.40
2023-05-15T00:13:19.152Z,24.41
2023-05-15T00:14:19.230Z,24.40
2023-05-15T00:15:19.241Z,24.40
2023-05-15T00:16:19.284Z,24.40
2023-05-15T00:17:19.264Z,24.40
2023-05-15T00:18:19.356Z,24.40
2023-05-15T00:19:19.522Z,24.40
2023-05-15T00:20:19.410Z,24.39
2023-05-15T00:21:19.475Z,24.39
2023-05-15T00:22:19.492Z,24.39
2023-05-15T00:23:19.501Z,24.39
2023-05-15T00:24:19.516Z,24.39
2023-05-15T00:25:19.709Z,24.39
2023-05-15T00:26:19.623Z,24.39
2023-05-15T00:27:19.722Z,24.39
2023-05-15T00:28:19.729Z,24.38
2023-05-15T00:29:19.760Z,24.38
2023-05-15T00:30:19.846Z,24.38
2023-05-15T00:31:19.883Z,24.38
2023-05-15T00:32:19.882Z,24.38
2023-05-15T00:33:19.970Z,24.37
2023-05-15T00:34:20.006Z,24.38
2023-05-15T00:35:20.083Z,24.37
2023-05-15T00:36:20.143Z,24.37
2023-05-15T00:37:20.157Z,24.37
2023-05-15T00:38:20.244Z,24.37
2023-05-15T00:39:20.337Z,24.37
2023-05-15T00:40:20.331Z,24.37
2023-05-15T00:41:20.375Z,24.37
2023-05-15T00:42:20.388Z,24.37
2023-05-15T00:43:20.456Z,24.37
2023-05-15T00:44:20.458Z,24.37
2023-05-15T00:45:20.510Z,24.37
2023-05-15T00:46:20.661Z,24.37
2023-05-15T00:47:20.647Z,24.37
2023-05-15T00:48:20.650Z,24.37
2023-05-15T00:49:20.648Z,24.36
2023-05-15T00:50:20.666Z,24.36
2023-05-15T00:51:20.760Z,24.36
2023-05-15T00:52:20.795Z,24.36
2023-05-15T00:53:20.779Z,24.36
2023-05-15T00:54:20.847Z,24.35
2023-05-15T00:55:20.883Z,24.36
2023-05-15T00:56:20.954Z,24.36
2023-05-15T00:57:20.994Z,24.36
2023-05-15T00:58:21.170Z,24.36
2023-05-15T00:59:21.109Z,24.36
2023-05-15T01:00:21.171Z,24.35
2023-05-15T01:01:21.283Z,24.35
2023-05-15T01:02:21.386Z,24.35
2023-05-15T01:03:21.367Z,24.35
2023-05-15T01:04:21.358Z,24.35
2023-05-15T01:05:21.419Z,24.35
2023-05-15T01:06:21.470Z,24.35
2023-05-15T01:07:21.476Z,24.34
2023-05-15T01:08:21.518Z,24.35
2023-05-15T01:09:21.555Z,24.34
2023-05-15T01:10:21.605Z,24.34
2023-05-15T01:11:21.643Z,24.35
2023-05-15T01:12:21.684Z,24.35
2023-05-15T01:13:21.720Z,24.34
2023-05-15T01:14:21.799Z,24.34
2023-05-15T01:15:21.850Z,24.33
2023-05-15T01:16:21.833Z,24.34
2023-05-15T01:17:21.920Z,24.33
2023-05-15T01:18:22.147Z,24.33
2023-05-15T01:19:22.157Z,24.33
2023-05-15T01:20:22.014Z,24.34
2023-05-15T01:21:22.040Z,24.33
2023-05-15T01:22:22.136Z,24.33
2023-05-15T01:23:22.160Z,24.33
2023-05-15T01:24:22.240Z,24.33
2023-05-15T01:25:22.486Z,24.33
2023-05-15T01:26:22.336Z,24.32
2023-05-15T01:27:22.376Z,24.33
2023-05-15T01:28:22.458Z,24.33
2023-05-15T01:29:22.484Z,24.32
2023-05-15T01:30:22.491Z,24.32
2023-05-15T01:31:22.514Z,24.32
2023-05-15T01:32:22.781Z,24.32
2023-05-15T01:33:22.643Z,24.32
2023-05-15T01:34:22.658Z,24.32
2023-05-15T01:35:23.084Z,24.32
2023-05-15T01:36:22.889Z,24.31
2023-05-15T01:37:22.836Z,24.31
2023-05-15T01:38:22.914Z,24.31
2023-05-15T01:39:22.952Z,24.32
2023-05-15T01:40:23.006Z,24.31
2023-05-15T01:41:23.039Z,24.31
2023-05-15T01:42:23.113Z,24.31
2023-05-15T01:43:23.104Z,24.32
2023-05-15T01:44:23.185Z,24.31
2023-05-15T01:45:23.277Z,24.31
2023-05-15T01:46:23.372Z,24.31
2023-05-15T01:47:23.387Z,24.31
2023-05-15T01:48:23.361Z,24.30
2023-05-15T01:49:23.405Z,24.30
2023-05-15T01:50:23.478Z,24.30
2023-05-15T01:51:23.504Z,24.30
2023-05-15T01:52:23.570Z,24.30
2023-05-15T01:53:23.588Z,24.30
2023-05-15T01:54:23.635Z,24.30
2023-05-15T01:55:23.841Z,24.30
2023-05-15T01:56:23.731Z,24.30
2023-05-15T01:57:23.775Z,24.30
2023-05-15T01:58:23.792Z,24.29
2023-05-15T01:59:23.849Z,24.30
2023-05-15T02:00:23.896Z,24.29
2023-05-15T02:01:24.013Z,24.30
2023-05-15T02:02:24.101Z,24.29
2023-05-15T02:03:24.160Z,24.30
2023-05-15T02:04:24.087Z,24.29
2023-05-15T02:05:24.538Z,24.30
2023-05-15T02:06:24.173Z,24.29
2023-05-15T02:07:24.226Z,24.28
2023-05-15T02:08:24.277Z,24.29
2023-05-15T02:09:24.329Z,24.28
2023-05-15T02:10:24.392Z,24.29
2023-05-15T02:11:24.402Z,24.29
2023-05-15T02:12:24.499Z,24.29
2023-05-15T02:13:24.515Z,24.28
2023-05-15T02:14:24.711Z,24.28
2023-05-15T02:15:24.829Z,24.28
2023-05-15T02:16:24.747Z,24.27
2023-05-15T02:17:24.728Z,24.28
2023-05-15T02:18:24.799Z,24.27
2023-05-15T02:19:24.795Z,24.27
2023-05-15T02:20:24.828Z,24.27
2023-05-15T02:21:24.913Z,24.28
2023-05-15T02:22:24.976Z,24.28
2023-05-15T02:23:25.045Z,24.27
2023-05-15T02:24:25.088Z,24.27
2023-05-15T02:25:25.385Z,24.26
2023-05-15T02:26:25.212Z,24.27
2023-05-15T02:27:25.294Z,24.27
2023-05-15T02:28:25.498Z,24.27
2023-05-15T02:29:25.402Z,24.27
2023-05-15T02:30:25.588Z,24.27
2023-05-15T02:31:25.530Z,24.26
2023-05-15T02:32:25.551Z,24.27
2023-05-15T02:33:25.935Z,24.26
2023-05-15T02:34:25.644Z,24.26
2023-05-15T02:35:25.907Z,24.25
2023-05-15T02:36:25.739Z,24.26
2023-05-15T02:37:25.744Z,24.25
2023-05-15T02:38:25.791Z,24.25
2023-05-15T02:39:25.820Z,24.25
2023-05-15T02:40:25.860Z,24.25
2023-05-15T02:41:25.982Z,24.25
2023-05-15T02:42:26.034Z,24.26
2023-05-15T02:43:26.097Z,24.26
2023-05-15T02:44:26.111Z,24.25
2023-05-15T02:45:26.874Z,24.25
2023-05-15T02:46:26.944Z,24.25
2023-05-15T02:47:26.300Z,24.25
2023-05-15T02:48:26.370Z,24.25
2023-05-15T02:49:26.406Z,24.25
2023-05-15T02:50:26.447Z,24.25
2023-05-15T02:51:26.444Z,24.24
2023-05-15T02:52:26.503Z,24.24
2023-05-15T02:53:26.536Z,24.24
2023-05-15T02:54:26.544Z,24.24
2023-05-15T02:55:26.897Z,24.25
2023-05-15T02:56:26.614Z,24.23
2023-05-15T02:57:26.659Z,24.24
2023-05-15T02:58:26.701Z,24.23
2023-05-15T02:59:26.746Z,24.24
2023-05-15T03:00:26.829Z,24.24
2023-05-15T03:01:26.837Z,24.24
2023-05-15T03:02:26.913Z,24.23
2023-05-15T03:03:26.945Z,24.24
2023-05-15T03:04:27.036Z,24.23
2023-05-15T03:05:27.384Z,24.24
2023-05-15T03:06:27.093Z,24.23
2023-05-15T03:07:27.936Z,24.23
2023-05-15T03:08:27.179Z,24.24
2023-05-15T03:09:27.185Z,24.23
2023-05-15T03:10:27.216Z,24.23
2023-05-15T03:11:27.321Z,24.23
2023-05-15T03:12:27.372Z,24.23
2023-05-15T03:13:27.359Z,24.23
2023-05-15T03:14:27.426Z,24.23
2023-05-15T03:15:27.564Z,24.22
2023-05-15T03:16:27.585Z,24.22
2023-05-15T03:17:27.598Z,24.23
2023-05-15T03:18:27.620Z,24.22
2023-05-15T03:19:27.674Z,24.22
2023-05-15T03:20:27.722Z,24.22
2023-05-15T03:21:27.796Z,24.22
2023-05-15T03:22:27.845Z,24.21
2023-05-15T03:23:27.952Z,24.21
2023-05-15T03:24:27.913Z,24.22
2023-05-15T03:25:28.112Z,24.22
2023-05-15T03:26:28.024Z,24.21
2023-05-15T03:27:28.033Z,24.21
2023-05-15T03:28:28.142Z,24.21
2023-05-15T03:29:28.151Z,24.21
2023-05-15T03:30:28.218Z,24.21
2023-05-15T03:31:28.307Z,24.21
2023-05-15T03:32:28.286Z,24.21
2023-05-15T03:33:28.334Z,24.21
2023-05-15T03:34:28.394Z,24.20
2023-05-15T03:35:28.437Z,24.21
2023-05-15T03:36:28.478Z,24.20
2023-05-15T03:37:28.567Z,24.20
2023-05-15T03:38:28.552Z,24.20
2023-05-15T03:39:28.572Z,24.20
2023-05-15T03:40:28.586Z,24.20
2023-05-15T03:41:28.643Z,24.21
2023-05-15T03:42:28.643Z,24.20
2023-05-15T03:43:28.677Z,24.20
2023-05-15T03:44:28.714Z,24.20
2023-05-15T03:45:29.006Z,24.21
2023-05-15T03:46:28.877Z,24.19
2023-05-15T03:47:28.854Z,24.19
2023-05-15T03:48:28.896Z,24.20
2023-05-15T03:49:28.950Z,24.19
2023-05-15T03:50:29.008Z,24.19
2023-05-15T03:51:29.012Z,24.20
2023-05-15T03:52:29.070Z,24.19
2023-05-15T03:53:29.070Z,24.19
2023-05-15T03:54:29.137Z,24.20
2023-05-15T03:55:29.144Z,24.19
2023-05-15T03:56:29.204Z,24.20
2023-05-15T03:57:29.239Z,24.19
2023-05-15T03:58:29.273Z,24.19
2023-05-15T03:59:29.360Z,24.19
2023-05-15T04:00:29.411Z,24.19
2023-05-15T04:01:29.560Z,24.19
2023-05-15T04:02:29.603Z,24.19
2023-05-15T04:03:29.603Z,24.18
2023-05-15T04:04:29.609Z,24.20
2023-05-15T04:05:29.702Z,24.20
2023-05-15T04:06:29.646Z,24.20
2023-05-15T04:07:29.722Z,24.20
2023-05-15T04:08:29.770Z,24.20
2023-05-15T04:09:29.814Z,24.20
2023-05-15T04:10:29.870Z,24.20
2023-05-15T04:11:29.885Z,24.20
2023-05-15T04:12:29.956Z,24.20
2023-05-15T04:13:30.039Z,24.19
2023-05-15T04:14:30.105Z,24.19
2023-05-15T04:15:30.105Z,24.18
2023-05-15T04:16:30.188Z,24.18
2023-05-15T04:17:30.227Z,24.17
2023-05-15T04:18:30.277Z,24.17
2023-05-15T04:19:30.318Z,24.16
2023-05-15T04:20:30.453Z,24.16
2023-05-15T04:21:30.469Z,24.16
2023-05-15T04:22:30.523Z,24.15
2023-05-15T04:23:30.546Z,24.16
2023-05-15T04:24:30.592Z,24.16
2023-05-15T04:25:30.599Z,24.17
2023-05-15T04:26:30.622Z,24.16
2023-05-15T04:27:30.603Z,24.15
2023-05-15T04:28:30.687Z,24.15
2023-05-15T04:29:30.632Z,24.14
2023-05-15T04:30:30.698Z,24.14
2023-05-15T04:31:30.622Z,24.12
2023-05-15T04:32:30.659Z,24.12
2023-05-15T04:33:30.684Z,24.10
2023-05-15T04:34:30.725Z,24.10
2023-05-15T04:35:30.786Z,24.10
2023-05-15T04:36:30.879Z,24.09
2023-05-15T04:37:30.959Z,24.10
2023-05-15T04:38:31.012Z,24.10
2023-05-15T04:39:31.071Z,24.09
2023-05-15T04:40:31.150Z,24.10
2023-05-15T04:41:31.186Z,24.10
2023-05-15T04:42:31.269Z,24.11
2023-05-15T04:43:31.278Z,24.12
2023-05-15T04:44:31.336Z,24.13
2023-05-15T04:45:31.432Z,24.12
2023-05-15T04:46:31.514Z,24.13
2023-05-15T04:47:31.557Z,24.13
2023-05-15T04:48:31.579Z,24.13
2023-05-15T04:49:31.619Z,24.13
2023-05-15T04:50:31.622Z,24.13
2023-05-15T04:51:31.638Z,24.13
2023-05-15T04:52:31.633Z,24.14
2023-05-15T04:53:31.722Z,24.14
2023-05-15T04:54:31.755Z,24.15
2023-05-15T04:55:33.040Z,24.15
2023-05-15T04:56:31.871Z,24.14
2023-05-15T04:57:31.916Z,24.15
2023-05-15T04:58:31.983Z,24.14
2023-05-15T04:59:32.037Z,24.14
2023-05-15T05:00:32.077Z,24.15
2023-05-15T05:01:32.136Z,24.16
2023-05-15T05:02:32.169Z,24.16
2023-05-15T05:03:32.241Z,24.15
2023-05-15T05:04:32.270Z,24.09
2023-05-15T05:05:32.350Z,24.08
2023-05-15T05:06:32.386Z,24.05
2023-05-15T05:07:32.442Z,24.01
2023-05-15T05:08:32.452Z,24.00
2023-05-15T05:09:32.479Z,24.00
2023-05-15T05:10:32.491Z,24.00
2023-05-15T05:11:32.517Z,23.98
2023-05-15T05:12:32.501Z,23.95
2023-05-15T05:13:32.475Z,23.92
2023-05-15T05:14:32.457Z,23.88
2023-05-15T05:15:32.491Z,23.83
2023-05-15T05:16:32.531Z,23.75
2023-05-15T05:17:32.526Z,23.71
2023-05-15T05:18:32.567Z,23.68
2023-05-15T05:19:32.598Z,23.66
2023-05-15T05:20:32.585Z,23.64
2023-05-15T05:21:32.621Z,23.62
2023-05-15T05:22:32.665Z,23.64
2023-05-15T05:23:32.732Z,23.63
2023-05-15T05:24:32.770Z,23.65
2023-05-15T05:25:32.789Z,23.65
2023-05-15T05:26:32.818Z,23.65
2023-05-15T05:27:32.873Z,23.67
2023-05-15T05:28:32.953Z,23.67
2023-05-15T05:29:32.943Z,23.70
2023-05-15T05:30:32.975Z,23.69
2023-05-15T05:31:33.066Z,23.66
2023-05-15T05:32:33.810Z,23.68
2023-05-15T05:33:33.013Z,23.69
2023-05-15T05:34:33.048Z,23.73
2023-05-15T05:35:33.517Z,23.75
2023-05-15T05:36:33.137Z,23.80
2023-05-15T05:37:33.161Z,23.81
2023-05-15T05:38:33.221Z,23.83
2023-05-15T05:39:33.161Z,23.86
2023-05-15T05:40:33.175Z,23.86
2023-05-15T05:41:33.170Z,23.87
2023-05-15T05:42:33.189Z,23.83
2023-05-15T05:43:33.503Z,23.74
2023-05-15T05:44:33.301Z,23.71
2023-05-15T05:45:33.289Z,23.69
2023-05-15T05:46:33.357Z,23.70
2023-05-15T05:47:33.428Z,23.76
2023-05-15T05:48:33.419Z,23.77
2023-05-15T05:49:33.435Z,23.76
2023-05-15T05:50:33.476Z,23.74
2023-05-15T05:51:33.493Z,23.66
2023-05-15T05:52:33.549Z,23.62
2023-05-15T05:53:33.556Z,23.60
2023-05-15T05:54:33.537Z,23.66
2023-05-15T05:55:33.541Z,23.71
2023-05-15T05:56:33.543Z,23.75
2023-05-15T05:57:33.539Z,23.80
2023-05-15T05:58:33.607Z,23.83
2023-05-15T05:59:33.602Z,23.86
2023-05-15T06:00:33.609Z,23.88
2023-05-15T06:01:34.041Z,23.89
2023-05-15T06:02:33.715Z,23.91
2023-05-15T06:03:33.685Z,23.92
2023-05-15T06:04:33.674Z,23.92
2023-05-15T06:05:33.638Z,23.90
2023-05-15T06:06:33.653Z,23.87
2023-05-15T06:07:33.630Z,23.89
2023-05-15T06:08:33.621Z,23.86
2023-05-15T06:09:33.622Z,23.81
2023-05-15T06:10:33.607Z,23.77
2023-05-15T06:11:33.673Z,23.75
2023-05-15T06:12:33.663Z,23.72
2023-05-15T06:13:33.677Z,23.68
2023-05-15T06:14:33.710Z,23.63
2023-05-15T06:15:33.781Z,23.57
2023-05-15T06:16:33.836Z,23.53
2023-05-15T06:17:33.836Z,23.49
2023-05-15T06:18:33.912Z,23.44
2023-05-15T06:19:33.878Z,23.42
2023-05-15T06:20:33.948Z,23.39
2023-05-15T06:21:34.080Z,23.38
2023-05-15T06:22:34.033Z,23.34
2023-05-15T06:23:34.084Z,23.30
2023-05-15T06:24:34.518Z,23.30
2023-05-15T06:25:34.196Z,23.33
2023-05-15T06:26:34.258Z,23.34
2023-05-15T06:27:35.065Z,23.37
2023-05-15T06:28:34.300Z,23.40
2023-05-15T06:29:34.559Z,23.42
2023-05-15T06:30:34.632Z,23.45
2023-05-15T06:31:34.617Z,23.49
2023-05-15T06:32:34.808Z,23.53
2023-05-15T06:33:34.526Z,23.53
2023-05-15T06:34:34.526Z,23.56
2023-05-15T06:35:34.565Z,23.58
2023-05-15T06:36:34.577Z,23.62
2023-05-15T06:37:35.096Z,23.64
2023-05-15T06:38:35.072Z,23.67
2023-05-15T06:39:34.666Z,23.70
2023-05-15T06:40:34.710Z,23.73
2023-05-15T06:41:34.671Z,23.76
2023-05-15T06:42:34.683Z,23.77
2023-05-15T06:43:36.359Z,23.79
2023-05-15T06:44:34.704Z,23.81
2023-05-15T06:45:34.682Z,23.79
2023-05-15T06:46:34.732Z,23.81
2023-05-15T06:47:34.693Z,23.83
2023-05-15T06:48:35.033Z,23.83
2023-05-15T06:49:34.728Z,23.84
2023-05-15T06:50:34.706Z,23.85
2023-05-15T06:51:34.789Z,23.89
2023-05-15T06:52:34.752Z,23.93
2023-05-15T06:53:35.061Z,23.98
2023-05-15T06:54:34.819Z,24.03
2023-05-15T06:55:34.832Z,24.08
2023-05-15T06:56:34.815Z,24.14
2023-05-15T06:57:34.947Z,24.21
2023-05-15T06:58:34.952Z,24.25
2023-05-15T06:59:35.002Z,24.28
2023-05-15T07:00:35.054Z,24.31
2023-05-15T07:01:35.598Z,24.36
2023-05-15T07:02:35.192Z,24.38
2023-05-15T07:03:35.249Z,24.39
2023-05-15T07:04:35.656Z,24.41
2023-05-15T07:05:35.342Z,24.43
2023-05-15T07:06:35.374Z,24.47
2023-05-15T07:07:35.433Z,24.50
2023-05-15T07:08:35.580Z,24.53
2023-05-15T07:09:35.501Z,24.58
2023-05-15T07:10:35.526Z,24.61
2023-05-15T07:11:35.556Z,24.63
2023-05-15T07:12:35.609Z,24.66
2023-05-15T07:13:36.118Z,24.68
2023-05-15T07:14:35.679Z,24.70
2023-05-15T07:15:35.695Z,24.72
2023-05-15T07:16:35.733Z,24.72
2023-05-15T07:17:36.768Z,24.73
2023-05-15T07:18:36.108Z,24.76
2023-05-15T07:19:35.974Z,24.78
2023-05-15T07:20:36.164Z,24.81
2023-05-15T07:21:35.971Z,24.82
2023-05-15T07:22:41.716Z,24.86
2023-05-15T07:23:37.073Z,24.90
2023-05-15T07:24:37.404Z,24.90
2023-05-15T07:25:36.024Z,24.90
2023-05-15T07:26:43.617Z,24.91
2023-05-15T07:27:36.982Z,24.92
2023-05-15T07:28:35.969Z,24.94
2023-05-15T07:29:36.140Z,24.98
2023-05-15T07:30:35.986Z,25.00
2023-05-15T07:31:36.072Z,25.03
2023-05-15T07:32:36.588Z,25.03
2023-05-15T07:33:35.968Z,25.01
2023-05-15T07:34:35.904Z,24.95
2023-05-15T07:35:35.904Z,24.88
2023-05-15T07:36:35.961Z,24.86
2023-05-15T07:37:35.931Z,24.83
2023-05-15T07:38:36.090Z,24.82
2023-05-15T07:39:35.946Z,24.83
2023-05-15T07:40:35.905Z,24.85
2023-05-15T07:41:35.907Z,24.85
2023-05-15T07:42:35.921Z,24.88
2023-05-15T07:43:35.843Z,24.92
2023-05-15T07:44:35.872Z,24.97
2023-05-15T07:45:35.903Z,25.02
2023-05-15T07:46:35.880Z,25.06
2023-05-15T07:47:35.873Z,25.10
2023-05-15T07:48:35.844Z,25.15
2023-05-15T07:49:35.821Z,25.18
2023-05-15T07:50:35.809Z,25.22
2023-05-15T07:51:35.836Z,25.24
2023-05-15T07:52:35.819Z,25.27
2023-05-15T07:53:35.784Z,25.28
2023-05-15T07:54:35.790Z,25.31
2023-05-15T07:55:35.805Z,25.33
2023-05-15T07:56:35.810Z,25.35
2023-05-15T07:57:35.775Z,25.35
2023-05-15T07:58:35.806Z,25.36
2023-05-15T07:59:35.777Z,25.39
2023-05-15T08:00:35.753Z,25.40
2023-05-15T08:01:35.782Z,25.41
2023-05-15T08:02:35.856Z,25.40
2023-05-15T08:03:35.801Z,25.38
2023-05-15T08:04:35.894Z,25.34
2023-05-15T08:05:35.758Z,25.30
2023-05-15T08:06:35.755Z,25.27
2023-05-15T08:07:35.798Z,25.24
2023-05-15T08:08:35.811Z,25.22
2023-05-15T08:09:35.815Z,25.20
2023-05-15T08:10:36.565Z,25.19
2023-05-15T08:11:36.063Z,25.19
2023-05-15T08:12:35.828Z,25.19
2023-05-15T08:13:35.814Z,25.16
2023-05-15T08:14:35.913Z,25.17
2023-05-15T08:15:36.014Z,25.15
2023-05-15T08:16:35.896Z,25.16
2023-05-15T08:17:35.905Z,25.17
2023-05-15T08:18:36.215Z,25.15
2023-05-15T08:19:35.889Z,25.13
2023-05-15T08:20:35.918Z,25.14
2023-05-15T08:21:35.910Z,25.13
2023-05-15T08:22:35.950Z,25.13
2023-05-15T08:23:35.935Z,25.11
2023-05-15T08:24:35.946Z,25.11
2023-05-15T08:25:35.966Z,25.11
2023-05-15T08:26:36.018Z,25.11
2023-05-15T08:27:35.903Z,25.07
2023-05-15T08:28:35.923Z,25.07
2023-05-15T08:29:37.867Z,25.01
2023-05-15T08:30:35.960Z,24.93
2023-05-15T08:31:36.149Z,24.80
2023-05-15T08:32:36.025Z,24.67
2023-05-15T08:33:35.967Z,24.56
2023-05-15T08:34:35.946Z,24.49
2023-05-15T08:35:35.999Z,24.44
2023-05-15T08:36:37.722Z,24.36
2023-05-15T08:37:36.079Z,24.30
2023-05-15T08:38:35.995Z,24.22
2023-05-15T08:39:36.038Z,24.16
2023-05-15T08:40:39.820Z,24.09
2023-05-15T08:42:36.050Z,24.06
2023-05-15T08:43:36.051Z,24.06
2023-05-15T08:44:36.103Z,24.08
2023-05-15T08:45:36.041Z,24.08
2023-05-15T08:46:36.113Z,24.08
2023-05-15T08:47:36.101Z,24.09
2023-05-15T08:48:36.095Z,24.10
2023-05-15T08:49:36.118Z,24.11
2023-05-15T08:50:35.970Z,24.13
2023-05-15T08:51:35.969Z,24.13
2023-05-15T08:52:35.993Z,24.14
2023-05-15T08:53:35.997Z,24.14
2023-05-15T08:54:35.963Z,24.14
2023-05-15T08:55:36.121Z,24.14
2023-05-15T08:56:36.129Z,24.14
2023-05-15T08:57:35.986Z,24.16
2023-05-15T08:58:35.987Z,24.19
2023-05-15T08:59:35.916Z,24.22
2023-05-15T09:00:35.984Z,24.25
2023-05-15T09:01:35.986Z,24.27
2023-05-15T09:02:35.995Z,24.30
2023-05-15T09:03:36.029Z,24.33
2023-05-15T09:04:35.920Z,24.36
2023-05-15T09:05:37.383Z,24.38
2023-05-15T09:06:35.887Z,24.40
2023-05-15T09:07:35.900Z,24.41
2023-05-15T09:08:35.916Z,24.43
2023-05-15T09:09:36.111Z,24.46
2023-05-15T09:10:35.875Z,24.48
2023-05-15T09:11:36.128Z,24.50
2023-05-15T09:12:35.899Z,24.52
2023-05-15T09:13:35.853Z,24.54
2023-05-15T09:14:35.825Z,24.56
2023-05-15T09:15:35.825Z,24.57
2023-05-15T09:16:35.918Z,24.55
2023-05-15T09:17:35.869Z,24.55
2023-05-15T09:18:35.829Z,24.56
2023-05-15T09:19:35.843Z,24.54
2023-05-15T09:20:35.786Z,24.53
2023-05-15T09:21:35.772Z,24.50
2023-05-15T09:22:35.857Z,24.48
2023-05-15T09:23:35.794Z,24.48
2023-05-15T09:24:35.852Z,24.49
2023-05-15T09:25:35.828Z,24.50
2023-05-15T09:26:35.837Z,24.51
2023-05-15T09:27:35.779Z,24.52
2023-05-15T09:28:35.748Z,24.53
2023-05-15T09:29:35.762Z,24.54
2023-05-15T09:30:35.725Z,24.53
2023-05-15T09:31:37.198Z,24.53
2023-05-15T09:32:36.120Z,24.53
2023-05-15T09:33:36.164Z,24.56
2023-05-15T09:34:36.109Z,24.55
2023-05-15T09:35:36.432Z,24.57
2023-05-15T09:36:35.884Z,24.61
2023-05-15T09:37:35.738Z,24.63
2023-05-15T09:38:35.822Z,24.65
2023-05-15T09:39:35.714Z,24.67
2023-05-15T09:40:35.669Z,24.69
2023-05-15T09:41:36.118Z,24.71
2023-05-15T09:42:35.685Z,24.73
2023-05-15T09:43:35.665Z,24.77
2023-05-15T09:44:36.168Z,24.78
2023-05-15T09:45:35.652Z,24.79
2023-05-15T09:46:35.719Z,24.80
2023-05-15T09:47:35.782Z,24.82
2023-05-15T09:48:35.723Z,24.83
2023-05-15T09:49:36.106Z,24.85
2023-05-15T09:50:35.575Z,24.86
2023-05-15T09:51:35.612Z,24.89
2023-05-15T09:52:35.590Z,24.89
2023-05-15T09:53:35.556Z,24.89
2023-05-15T09:54:35.573Z,24.88
2023-05-15T09:55:35.557Z,24.89
2023-05-15T09:56:35.531Z,24.89
2023-05-15T09:57:35.538Z,24.90
2023-05-15T09:58:35.518Z,24.90
2023-05-15T09:59:35.519Z,24.87
2023-05-15T10:00:35.534Z,24.88
2023-05-15T10:01:35.531Z,24.88
2023-05-15T10:02:35.562Z,24.90
2023-05-15T10:03:35.515Z,24.88
2023-05-15T10:04:35.474Z,24.86
2023-05-15T10:05:43.090Z,24.85
2023-05-15T10:06:36.501Z,24.86
2023-05-15T10:07:35.474Z,24.88
2023-05-15T10:08:35.487Z,24.89
2023-05-15T10:09:35.547Z,24.91
2023-05-15T10:10:35.455Z,24.92
2023-05-15T10:11:35.463Z,24.92
2023-05-15T10:12:35.614Z,24.95
2023-05-15T10:13:35.621Z,24.98
2023-05-15T10:14:35.468Z,25.00
2023-05-15T10:15:35.448Z,25.02
2023-05-15T10:16:35.516Z,25.02
2023-05-15T10:17:35.477Z,25.03
2023-05-15T10:18:35.401Z,25.05
2023-05-15T10:19:39.461Z,25.07
2023-05-15T10:20:36.425Z,25.10
2023-05-15T10:21:35.365Z,25.11
2023-05-15T10:22:35.394Z,25.12
2023-05-15T10:23:35.342Z,25.13
2023-05-15T10:24:35.383Z,25.13
2023-05-15T10:25:35.361Z,25.10
2023-05-15T10:26:35.424Z,25.04
2023-05-15T10:27:35.358Z,24.98
2023-05-15T10:28:35.311Z,24.90
2023-05-15T10:29:35.336Z,24.82
2023-05-15T10:30:35.329Z,24.74
2023-05-15T10:31:35.342Z,24.71
2023-05-15T10:32:35.375Z,24.71
2023-05-15T10:33:35.277Z,24.65
2023-05-15T10:34:35.290Z,24.58
2023-05-15T10:35:35.288Z,24.54
2023-05-15T10:36:35.356Z,24.52
2023-05-15T10:37:35.410Z,24.54
2023-05-15T10:38:35.421Z,24.56
2023-05-15T10:39:35.499Z,24.59
2023-05-15T10:40:35.531Z,24.63
2023-05-15T10:41:35.620Z,24.65
2023-05-15T10:42:35.661Z,24.67
2023-05-15T10:43:35.632Z,24.69
2023-05-15T10:44:35.644Z,24.73
2023-05-15T10:45:35.703Z,24.76
2023-05-15T10:46:35.755Z,24.79
2023-05-15T10:47:35.715Z,24.80
2023-05-15T10:48:35.793Z,24.83
2023-05-15T10:49:35.772Z,24.86
2023-05-15T10:50:35.771Z,24.87
2023-05-15T10:51:35.769Z,24.89
2023-05-15T10:52:35.743Z,24.92
2023-05-15T10:53:35.794Z,24.94
2023-05-15T10:54:35.864Z,24.96
2023-05-15T10:55:35.836Z,24.97
2023-05-15T10:56:35.840Z,24.99
2023-05-15T10:57:35.855Z,25.01
2023-05-15T10:58:35.899Z,25.02
2023-05-15T10:59:35.880Z,25.02
2023-05-15T11:00:35.905Z,25.04
2023-05-15T11:01:36.076Z,25.04
2023-05-15T11:02:35.929Z,25.04
2023-05-15T11:03:48.166Z,25.04
2023-05-15T11:04:36.897Z,25.04
2023-05-15T11:05:35.924Z,25.04
2023-05-15T11:06:35.941Z,25.05
2023-05-15T11:07:35.848Z,25.05
2023-05-15T11:08:36.181Z,25.03
2023-05-15T11:09:35.902Z,25.06
2023-05-15T11:10:35.897Z,25.07
2023-05-15T11:11:35.881Z,25.07
2023-05-15T11:12:35.833Z,25.09
2023-05-15T11:13:36.164Z,25.09
2023-05-15T11:14:35.828Z,25.10
2023-05-15T11:15:35.826Z,25.09
2023-05-15T11:16:35.794Z,25.09
2023-05-15T11:17:35.838Z,25.09
2023-05-15T11:18:35.844Z,25.11
2023-05-15T11:19:36.176Z,25.16
2023-05-15T11:20:37.089Z,25.23
2023-05-15T11:21:35.850Z,25.26
2023-05-15T11:22:35.746Z,25.29
2023-05-15T11:23:35.768Z,25.31
2023-05-15T11:24:35.808Z,25.32
2023-05-15T11:25:36.288Z,25.33
2023-05-15T11:26:35.788Z,25.34
2023-05-15T11:27:35.769Z,25.34
2023-05-15T11:28:35.759Z,25.35
2023-05-15T11:29:36.152Z,25.35
2023-05-15T11:30:35.745Z,25.36
2023-05-15T11:31:35.803Z,25.35
2023-05-15T11:32:35.707Z,25.36
2023-05-15T11:33:35.665Z,25.35
2023-05-15T11:34:35.718Z,25.34
2023-05-15T11:35:35.721Z,25.34
2023-05-15T11:36:37.075Z,25.34
2023-05-15T11:37:35.676Z,25.35
2023-05-15T11:38:36.026Z,25.34
2023-05-15T11:39:35.650Z,25.34
2023-05-15T11:40:35.693Z,25.33
2023-05-15T11:41:35.617Z,25.32
2023-05-15T11:42:35.666Z,25.32
2023-05-15T11:43:35.603Z,25.32
2023-05-15T11:44:35.613Z,25.32
2023-05-15T11:45:35.677Z,25.32
2023-05-15T11:46:35.632Z,25.33
2023-05-15T11:47:35.618Z,25.33
2023-05-15T11:48:35.685Z,25.32
2023-05-15T11:49:35.574Z,25.32
2023-05-15T11:50:35.569Z,25.31
2023-05-15T11:51:35.607Z,25.31
2023-05-15T11:52:35.581Z,25.30
2023-05-15T11:53:35.579Z,25.30
2023-05-15T11:54:35.586Z,25.28
2023-05-15T11:55:35.592Z,25.28
2023-05-15T11:56:35.530Z,25.27
2023-05-15T11:57:35.560Z,25.26
2023-05-15T11:58:35.546Z,25.26
2023-05-15T11:59:35.518Z,25.26
2023-05-15T12:00:35.531Z,25.27
2023-05-15T12:01:35.544Z,25.26
2023-05-15T12:02:35.622Z,25.21
2023-05-15T12:03:35.636Z,25.16
2023-05-15T12:04:35.603Z,25.06
2023-05-15T12:05:35.552Z,25.00
2023-05-15T12:06:35.633Z,24.95
2023-05-15T12:07:35.638Z,24.94
2023-05-15T12:08:35.683Z,24.93
2023-05-15T12:09:35.709Z,24.96
2023-05-15T12:10:35.706Z,25.00
2023-05-15T12:11:35.772Z,25.05
2023-05-15T12:12:35.774Z,25.10
2023-05-15T12:13:35.779Z,25.15
2023-05-15T12:14:35.760Z,25.20
2023-05-15T12:15:35.835Z,25.24
2023-05-15T12:16:35.884Z,25.29
2023-05-15T12:17:35.873Z,25.33
2023-05-15T12:18:35.827Z,25.37
2023-05-15T12:19:36.786Z,25.40
2023-05-15T12:20:35.804Z,25.44
2023-05-15T12:21:37.733Z,25.47
2023-05-15T12:22:35.785Z,25.49
2023-05-15T12:23:35.785Z,25.51
2023-05-15T12:24:35.820Z,25.54
2023-05-15T12:25:35.855Z,25.56
2023-05-15T12:26:36.020Z,25.57
2023-05-15T12:27:35.919Z,25.59
2023-05-15T12:28:36.069Z,25.63
2023-05-15T12:29:36.068Z,25.63
2023-05-15T12:30:36.056Z,25.62
2023-05-15T12:31:36.127Z,25.62
2023-05-15T12:32:36.134Z,25.62
2023-05-15T12:33:36.083Z,25.61
2023-05-15T12:34:36.181Z,25.57
2023-05-15T12:35:36.153Z,25.57
2023-05-15T12:36:36.150Z,25.57
2023-05-15T12:37:36.142Z,25.57
2023-05-15T12:38:36.150Z,25.59
2023-05-15T12:39:36.164Z,25.56
2023-05-15T12:40:36.165Z,25.52
2023-05-15T12:41:36.240Z,25.45
2023-05-15T12:42:36.229Z,25.39
2023-05-15T12:43:36.261Z,25.37
2023-05-15T12:44:36.198Z,25.36
2023-05-15T12:45:36.212Z,25.36
2023-05-15T12:46:36.289Z,25.36
2023-05-15T12:47:36.278Z,25.34
2023-05-15T12:48:36.274Z,25.28
2023-05-15T12:49:36.273Z,25.23
2023-05-15T12:50:36.275Z,25.17
2023-05-15T12:51:36.288Z,25.08
2023-05-15T12:52:36.285Z,25.00
2023-05-15T12:53:36.375Z,24.95